createdAt,value
2014-08-12T00:00:12.353Z,56.74
2014-08-12T00:01:17.043Z,57.2
2014-08-12T00:02:21.717Z,57.27
2014-08-12T00:03:26.406Z,58.78
2014-08-12T00:04:31.393Z,57.71
2014-08-12T00:05:36.083Z,58.4
2014-08-12T00:06:41.053Z,57.94
2014-08-12T00:07:45.743Z,58.1
2014-08-12T00:08:50.730Z,57.8
2014-08-12T00:09:55.403Z,57.78
2014-08-12T00:11:00.093Z,57.86
2014-08-12T00:12:04.767Z,57.65
2014-08-12T00:13:09.457Z,58.27
2014-08-12T00:14:14.130Z,58.6
2014-08-12T00:15:18.820Z,58.09
2014-08-12T00:16:23.509Z,58.46
2014-08-12T00:17:28.183Z,58.04
2014-08-12T00:18:32.873Z,57.97
2014-08-12T00:19:37.859Z,57.59
2014-08-12T00:20:42.533Z,58.46
2014-08-12T00:21:47.223Z,57.51
2014-08-12T00:22:51.897Z,58.4
2014-08-12T00:23:56.883Z,57.63
2014-08-12T00:25:01.573Z,57.51
2014-08-12T00:26:06.262Z,57.4
2014-08-12T00:27:11.249Z,57.75
2014-08-12T00:28:15.923Z,57.79
2014-08-12T00:29:20.613Z,57.9
2014-08-12T00:30:25.302Z,58.33
2014-08-12T00:31:29.976Z,58.22
2014-08-12T00:32:34.962Z,57.89
2014-08-12T00:33:39.636Z,58.06
2014-08-12T00:34:44.624Z,58.18
2014-08-12T00:35:49.313Z,57.88
2014-08-12T00:36:54.283Z,58.28
2014-08-12T00:37:59.270Z,58.39
2014-08-12T00:39:03.943Z,58.39
2014-08-12T00:40:08.634Z,58.11
2014-08-12T00:41:13.620Z,58.64
2014-08-12T00:42:18.590Z,58.18
2014-08-12T00:43:22.592Z,57.92
2014-08-12T00:44:27.579Z,58.2
2014-08-12T00:45:32.253Z,58.17
2014-08-12T00:46:36.942Z,57.92
2014-08-12T00:47:41.616Z,58.64
2014-08-12T00:48:46.306Z,57.94
2014-08-12T00:49:50.995Z,57.9
2014-08-12T00:50:55.669Z,57.91
2014-08-12T00:52:00.359Z,58.03
2014-08-12T00:53:05.329Z,57.83
2014-08-12T00:54:10.019Z,58.2
2014-08-12T00:55:14.693Z,58.46
2014-08-12T00:56:19.383Z,58.41
2014-08-12T00:57:24.057Z,58.47
2014-08-12T00:58:28.746Z,58.66
2014-08-12T00:59:33.421Z,58.42
2014-08-12T01:00:38.110Z,58.44
2014-08-12T01:01:42.800Z,58.39
2014-08-12T01:02:47.770Z,58.3
2014-08-12T01:03:52.460Z,58.37
2014-08-12T01:04:57.134Z,58.17
2014-08-12T01:06:01.823Z,57.92
2014-08-12T01:07:06.513Z,58.54
2014-08-12T01:08:11.188Z,58.27
2014-08-12T01:09:15.876Z,57.99
2014-08-12T01:10:20.550Z,59.22
2014-08-12T01:11:25.240Z,58.43
2014-08-12T01:12:30.226Z,58.19
2014-08-12T01:13:35.213Z,58.09
2014-08-12T01:14:39.887Z,58.17
2014-08-12T01:15:44.577Z,58.48
2014-08-12T01:16:49.250Z,58.22
2014-08-12T01:17:54.237Z,58.58
2014-08-12T01:18:58.926Z,58.52
2014-08-12T01:20:03.600Z,58.68
2014-08-12T01:21:08.290Z,58.8
2014-08-12T01:22:12.965Z,59.76
2014-08-12T01:23:17.950Z,58.24
2014-08-12T01:24:22.936Z,58.12
2014-08-12T01:25:27.642Z,58.19
2014-08-12T01:26:32.629Z,58.22
2014-08-12T01:27:37.302Z,59.24
2014-08-12T01:28:42.289Z,58.67
2014-08-12T01:29:46.963Z,60.13
2014-08-12T01:30:51.949Z,60.16
2014-08-12T01:31:56.623Z,59.67
2014-08-12T01:33:01.313Z,60.78
2014-08-12T01:34:05.988Z,60.88
2014-08-12T01:35:10.676Z,60.2
2014-08-12T01:36:15.662Z,60.24
2014-08-12T01:37:20.337Z,59.75
2014-08-12T01:38:25.026Z,59.07
2014-08-12T01:39:30.013Z,59.39
2014-08-12T01:40:34.999Z,58.96
2014-08-12T01:41:39.970Z,58.47
2014-08-12T01:42:44.956Z,59.07
2014-08-12T01:43:49.646Z,60.02
2014-08-12T01:44:54.320Z,58.82
2014-08-12T01:45:59.603Z,59.14
2014-08-12T01:47:04.293Z,60.2
2014-08-12T01:48:08.592Z,59.8
2014-08-12T01:49:13.267Z,60.6
2014-08-12T01:50:17.956Z,60.08
2014-08-12T01:51:22.926Z,60.27
2014-08-12T01:52:27.616Z,60.92
2014-08-12T01:53:32.289Z,61.4
2014-08-12T01:54:36.979Z,60.87
2014-08-12T01:55:41.669Z,61.01
2014-08-12T01:56:46.343Z,59.69
2014-08-12T01:57:51.329Z,59.27
2014-08-12T01:58:56.019Z,59.1
2014-08-12T02:00:00.693Z,59
2014-08-12T02:01:05.381Z,58.66
2014-08-12T02:02:10.056Z,58.89
2014-08-12T02:03:15.043Z,59.03
2014-08-12T02:04:19.732Z,58.85
2014-08-12T02:05:24.406Z,58.83
2014-08-12T02:06:29.096Z,58.85
2014-08-12T02:07:33.786Z,59.09
2014-08-12T02:08:38.475Z,58.75
2014-08-12T02:09:43.165Z,58.98
2014-08-12T02:10:47.838Z,59.04
2014-08-12T02:11:52.825Z,58.63
2014-08-12T02:12:57.515Z,58.7
2014-08-12T02:14:02.189Z,58.29
2014-08-12T02:15:07.175Z,58.63
2014-08-12T02:16:11.864Z,58.75
2014-08-12T02:17:16.835Z,58.81
2014-08-12T02:18:21.525Z,59.46
2014-08-12T02:19:26.511Z,59.11
2014-08-12T02:20:31.201Z,59.2
2014-08-12T02:21:35.875Z,58.51
2014-08-12T02:22:40.861Z,59.6
2014-08-12T02:23:45.535Z,59.48
2014-08-12T02:24:50.225Z,58.31
2014-08-12T02:25:54.915Z,58.81
2014-08-12T02:26:59.589Z,58.75
2014-08-12T02:28:04.278Z,58.24
2014-08-12T02:29:09.264Z,57.98
2014-08-12T02:30:14.251Z,57.85
2014-08-12T02:31:18.925Z,57.89
2014-08-12T02:32:23.614Z,58.19
2014-08-12T02:33:28.304Z,58.16
2014-08-12T02:34:32.979Z,58.38
2014-08-12T02:35:37.667Z,58.39
2014-08-12T02:36:42.358Z,58.11
2014-08-12T02:37:47.047Z,58.01
2014-08-12T02:38:51.720Z,58.25
2014-08-12T02:39:56.410Z,58.28
2014-08-12T02:41:01.397Z,58.4
2014-08-12T02:42:06.070Z,58.51
2014-08-12T02:43:10.760Z,58.57
2014-08-12T02:44:15.449Z,58.12
2014-08-12T02:45:20.139Z,57.76
2014-08-12T02:46:24.828Z,58.49
2014-08-12T02:47:29.518Z,58.62
2014-08-12T02:48:34.208Z,60.13
2014-08-12T02:49:38.898Z,59.55
2014-08-12T02:50:43.571Z,59.22
2014-08-12T02:51:48.262Z,59.4
2014-08-12T02:52:52.950Z,59.28
2014-08-12T02:53:57.655Z,58.86
2014-08-12T02:55:02.329Z,58.84
2014-08-12T02:56:07.020Z,59.62
2014-08-12T02:57:11.709Z,59.79
2014-08-12T02:58:16.399Z,60.02
2014-08-12T02:59:21.088Z,59.84
2014-08-12T03:00:25.778Z,60.19
2014-08-12T03:01:30.467Z,60.47
2014-08-12T03:02:35.156Z,60.54
2014-08-12T03:03:40.140Z,59.76
2014-08-12T03:04:44.812Z,60.52
2014-08-12T03:05:49.500Z,60.97
2014-08-12T03:06:54.188Z,60.23
2014-08-12T03:07:59.174Z,59.8
2014-08-12T03:09:04.160Z,59.57
2014-08-12T03:10:08.833Z,59.6
2014-08-12T03:11:13.521Z,60.51
2014-08-12T03:12:18.210Z,59.68
2014-08-12T03:13:22.900Z,60.2
2014-08-12T03:14:27.871Z,59.74
2014-08-12T03:19:17.053Z,59.22
2014-08-12T03:20:21.726Z,59.67
2014-08-12T03:21:26.994Z,60.48
2014-08-12T03:22:31.652Z,60.83
2014-08-12T03:23:36.326Z,61.21
2014-08-12T03:24:40.984Z,60.37
2014-08-12T03:25:45.955Z,59.81
2014-08-12T03:26:50.629Z,59.26
2014-08-12T03:27:55.319Z,59.28
2014-08-12T03:29:00.289Z,59.48
2014-08-12T03:30:04.979Z,60.25
2014-08-12T03:31:09.966Z,60.91
2014-08-12T03:32:14.952Z,59.87
2014-08-12T03:33:19.626Z,59.49
2014-08-12T03:34:24.316Z,60.95
2014-08-12T03:35:28.301Z,59.44
2014-08-12T03:36:33.039Z,60.88
2014-08-12T03:37:37.713Z,60.41
2014-08-12T03:38:42.402Z,59.55
2014-08-12T03:39:47.388Z,61.08
2014-08-12T03:40:52.359Z,59.86
2014-08-12T03:41:57.033Z,59.51
2014-08-12T03:43:01.738Z,58.94
2014-08-12T03:44:06.428Z,59.64
2014-08-12T03:45:11.118Z,60.86
2014-08-12T03:46:15.791Z,59.92
2014-08-12T03:47:20.778Z,59.57
2014-08-12T03:48:25.467Z,60.3
2014-08-12T03:49:30.141Z,59.88
2014-08-12T03:50:34.831Z,59.38
2014-08-12T03:51:39.521Z,60.3
2014-08-12T03:52:44.194Z,61.04
2014-08-12T03:53:48.884Z,60.71
2014-08-12T03:54:53.574Z,60.13
2014-08-12T03:55:58.263Z,59.84
2014-08-12T03:57:02.937Z,60.31
2014-08-12T03:58:07.924Z,61.06
2014-08-12T03:59:12.613Z,59.72
2014-08-12T04:00:17.287Z,60.76
2014-08-12T04:01:22.274Z,61.3
2014-08-12T04:02:26.963Z,61.5
2014-08-12T04:03:31.638Z,60.15
2014-08-12T04:04:36.342Z,61.18
2014-08-12T04:05:41.329Z,60.5
2014-08-12T04:06:46.002Z,60.8
2014-08-12T04:07:50.691Z,60.02
2014-08-12T04:08:55.382Z,59.67
2014-08-12T04:10:00.056Z,59.26
2014-08-12T04:11:04.745Z,60.62
2014-08-12T04:12:09.435Z,59.65
2014-08-12T04:13:14.109Z,59.88
2014-08-12T04:14:19.096Z,59.9
2014-08-12T04:15:23.769Z,60.14
2014-08-12T04:16:28.756Z,59.79
2014-08-12T04:17:33.445Z,59.49
2014-08-12T04:18:38.416Z,59.32
2014-08-12T04:19:43.402Z,58.54
2014-08-12T04:20:48.092Z,59.13
2014-08-12T04:21:52.766Z,60.05
2014-08-12T04:22:57.455Z,60.71
2014-08-12T04:24:02.441Z,60.16
2014-08-12T04:25:07.131Z,60.88
2014-08-12T04:26:11.821Z,61.14
2014-08-12T04:27:16.808Z,61.52
2014-08-12T04:28:21.481Z,61.19
2014-08-12T04:29:26.171Z,60.66
2014-08-12T04:30:31.157Z,61.04
2014-08-12T04:31:35.831Z,61.09
2014-08-12T04:32:40.521Z,61.21
2014-08-12T04:33:45.196Z,59.81
2014-08-12T04:34:49.885Z,59.39
2014-08-12T04:35:54.574Z,59.97
2014-08-12T04:36:59.248Z,60.48
2014-08-12T04:38:03.938Z,60.7
2014-08-12T04:39:08.909Z,59.45
2014-08-12T04:40:13.895Z,59.91
2014-08-12T04:41:18.585Z,59.74
2014-08-12T04:42:23.258Z,60.27
2014-08-12T04:43:27.948Z,60.63
2014-08-12T04:44:32.637Z,61.21
2014-08-12T04:45:37.311Z,60.81
2014-08-12T04:46:42.001Z,60.14
2014-08-12T04:47:46.690Z,61.29
2014-08-12T04:48:51.365Z,60.03
2014-08-12T04:49:56.055Z,61.16
2014-08-12T04:51:00.729Z,60.75
2014-08-12T04:52:05.418Z,59.05
2014-08-12T04:53:10.108Z,58.59
2014-08-12T04:54:15.078Z,59.74
2014-08-12T04:55:19.768Z,60.89
2014-08-12T04:56:24.457Z,60.98
2014-08-12T04:57:29.147Z,61.02
2014-08-12T04:58:33.836Z,60.03
2014-08-12T04:59:38.807Z,58.85
2014-08-12T05:00:43.498Z,58.43
2014-08-12T05:01:48.484Z,59.84
2014-08-12T05:02:52.469Z,58.92
2014-08-12T05:03:57.159Z,58.55
2014-08-12T05:05:01.848Z,58.42
2014-08-12T05:06:06.554Z,59.35
2014-08-12T05:07:11.244Z,59.93
2014-08-12T05:08:16.214Z,59.14
2014-08-12T05:09:20.904Z,58.85
2014-08-12T05:10:25.594Z,58.85
2014-08-12T05:11:30.283Z,60.94
2014-08-12T05:12:35.254Z,60.98
2014-08-12T05:13:39.943Z,60.74
2014-08-12T05:14:44.617Z,60.1
2014-08-12T05:15:49.604Z,59.34
2014-08-12T05:16:54.279Z,58.17
2014-08-12T05:17:58.967Z,58.49
2014-08-12T05:19:03.657Z,60.05
2014-08-12T05:20:08.331Z,60.9
2014-08-12T05:21:13.020Z,58.68
2014-08-12T05:22:17.694Z,60.04
2014-08-12T05:23:22.978Z,60.38
2014-08-12T05:24:27.668Z,60.42
2014-08-12T05:25:32.341Z,60.2
2014-08-12T05:26:37.031Z,58.84
2014-08-12T05:27:41.705Z,58.84
2014-08-12T05:28:46.394Z,59.87
2014-08-12T05:29:51.084Z,58.88
2014-08-12T05:30:56.055Z,59.48
2014-08-12T05:32:00.744Z,59.45
2014-08-12T05:33:05.434Z,59.83
2014-08-12T05:34:10.108Z,61.39
2014-08-12T05:35:14.797Z,62.45
2014-08-12T05:36:19.487Z,61.64
2014-08-12T05:37:24.177Z,62.8
2014-08-12T05:38:28.850Z,62.79
2014-08-12T05:39:33.540Z,62.78
2014-08-12T05:40:38.527Z,62.76
2014-08-12T05:41:43.201Z,63.64
2014-08-12T05:42:47.890Z,63.98
2014-08-12T05:43:52.861Z,64.53
2014-08-12T05:44:57.550Z,62.82
2014-08-12T05:46:02.240Z,63.29
2014-08-12T05:47:06.929Z,63.02
2014-08-12T05:48:11.900Z,62.68
2014-08-12T05:49:15.902Z,63.23
2014-08-12T05:50:20.593Z,62.77
2014-08-12T05:51:25.282Z,62.86
2014-08-12T05:52:30.267Z,62.55
2014-08-12T05:53:35.239Z,62.32
2014-08-12T05:54:40.241Z,60.72
2014-08-12T05:55:44.931Z,61.2
2014-08-12T05:56:50.198Z,62.5
2014-08-12T05:57:54.888Z,61.67
2014-08-12T05:58:59.577Z,63
2014-08-12T06:00:04.251Z,62.62
2014-08-12T06:01:09.239Z,62.07
2014-08-12T06:02:13.927Z,63.29
2014-08-12T06:03:18.617Z,63.53
2014-08-12T06:04:23.307Z,62.88
2014-08-12T06:05:27.996Z,62.44
2014-08-12T06:06:32.983Z,61.36
2014-08-12T06:07:37.968Z,62.05
2014-08-12T06:08:42.659Z,61.82
2014-08-12T06:09:47.332Z,62.22
2014-08-12T06:10:52.319Z,63.31
2014-08-12T06:11:57.009Z,62.7
2014-08-12T06:13:01.698Z,63.48
2014-08-12T06:14:06.372Z,62.81
2014-08-12T06:15:11.062Z,62.15
2014-08-12T06:16:16.048Z,61.23
2014-08-12T06:17:20.738Z,61.41
2014-08-12T06:18:25.724Z,61.34
2014-08-12T06:19:30.414Z,61.5
2014-08-12T06:20:35.088Z,61.21
2014-08-12T06:21:39.778Z,61.42
2014-08-12T06:22:44.467Z,61.43
2014-08-12T06:23:49.157Z,60.71
2014-08-12T06:24:53.846Z,60.37
2014-08-12T06:25:58.832Z,60.25
2014-08-12T06:27:03.522Z,60.4
2014-08-12T06:28:08.493Z,59.78
2014-08-12T06:29:13.182Z,59.52
2014-08-12T06:30:18.170Z,58.91
2014-08-12T06:31:23.156Z,59.31
2014-08-12T06:32:28.141Z,59.25
2014-08-12T06:33:32.832Z,59.73
2014-08-12T06:34:37.505Z,59.93
2014-08-12T06:35:42.195Z,59.86
2014-08-12T06:36:47.182Z,60.61
2014-08-12T06:37:51.871Z,60.41
2014-08-12T06:38:56.561Z,60.01
2014-08-12T06:40:01.250Z,60.57
2014-08-12T06:41:06.236Z,61.26
2014-08-12T06:42:10.910Z,59.71
2014-08-12T06:43:15.600Z,59.69
2014-08-12T06:44:20.586Z,58.83
2014-08-12T06:45:25.276Z,59.65
2014-08-12T06:46:30.278Z,60.43
2014-08-12T06:47:34.968Z,59.26
2014-08-12T06:48:39.657Z,58.95
2014-08-12T06:49:44.628Z,60.41
2014-08-12T06:50:49.629Z,59.42
2014-08-12T06:51:54.304Z,59.05
2014-08-12T06:52:58.993Z,58.96
2014-08-12T06:54:04.293Z,58.81
2014-08-12T06:55:08.982Z,58.47
2014-08-12T06:56:13.969Z,58.75
2014-08-12T06:57:18.658Z,58.95
2014-08-12T06:58:23.348Z,58.78
2014-08-12T06:59:27.646Z,59.34
2014-08-12T07:00:32.321Z,58.41
2014-08-12T07:01:37.010Z,58.38
2014-08-12T07:02:41.997Z,59.44
2014-08-12T07:03:46.983Z,59.57
2014-08-12T07:04:51.673Z,59.02
2014-08-12T07:05:56.362Z,60.17
2014-08-12T07:07:01.052Z,58.44
2014-08-12T07:08:05.742Z,58.1
2014-08-12T07:09:10.728Z,59.21
2014-08-12T07:10:15.402Z,58.01
2014-08-12T07:11:20.091Z,57.47
2014-08-12T07:12:24.781Z,57.44
2014-08-12T07:13:29.767Z,57.45
2014-08-12T07:14:34.754Z,56.73
2014-08-12T07:15:39.444Z,56.71
2014-08-12T07:16:44.133Z,57.96
2014-08-12T07:17:48.807Z,57.14
2014-08-12T07:18:53.793Z,57.26
2014-08-12T07:19:58.529Z,57.89
2014-08-12T07:21:03.219Z,56.61
2014-08-12T07:22:07.909Z,57.05
2014-08-12T07:23:12.599Z,56.9
2014-08-12T07:24:17.288Z,56.63
2014-08-12T07:25:21.978Z,58.41
2014-08-12T07:26:26.667Z,58.17
2014-08-12T07:27:31.654Z,57.02
2014-08-12T07:28:36.344Z,56.5
2014-08-12T07:29:41.329Z,56.85
2014-08-12T07:30:46.020Z,57.26
2014-08-12T07:31:50.708Z,56.75
2014-08-12T07:32:55.696Z,56.3
2014-08-12T07:34:00.400Z,56.95
2014-08-12T07:35:05.089Z,55.48
2014-08-12T07:36:09.764Z,54.85
2014-08-12T07:37:14.750Z,54.56
2014-08-12T07:38:19.440Z,54.01
2014-08-12T07:39:24.427Z,53.68
2014-08-12T07:40:29.100Z,54.38
2014-08-12T07:41:33.790Z,52.84
2014-08-12T07:42:37.792Z,52.61
2014-08-12T07:43:42.481Z,52.98
2014-08-12T07:44:47.171Z,52.78
2014-08-12T07:45:52.157Z,52.57
2014-08-12T07:46:56.831Z,52.32
2014-08-12T07:48:01.521Z,52.86
2014-08-12T07:49:06.211Z,52.21
2014-08-12T07:50:10.901Z,51.9
2014-08-12T07:51:15.887Z,51.78
2014-08-12T07:52:20.577Z,51.6
2014-08-12T07:53:25.266Z,51.52
2014-08-12T07:54:29.940Z,52.2
2014-08-12T07:55:34.629Z,52.32
2014-08-12T07:56:39.319Z,51.92
2014-08-12T07:57:43.993Z,51.83
2014-08-12T07:58:48.682Z,51.65
2014-08-12T07:59:53.669Z,51.68
2014-08-12T08:00:58.344Z,51.92
2014-08-12T08:02:03.032Z,51.09
2014-08-12T08:03:08.018Z,52.35
2014-08-12T08:04:12.709Z,50.14
2014-08-12T08:05:17.382Z,50.54
2014-08-12T08:06:22.369Z,49.8
2014-08-12T08:07:27.059Z,50.33
2014-08-12T08:08:31.733Z,50.93
2014-08-12T08:09:36.422Z,51.11
2014-08-12T08:10:41.112Z,50.41
2014-08-12T08:11:46.098Z,50.52
2014-08-12T08:12:50.772Z,49.01
2014-08-12T08:13:55.758Z,49.51
2014-08-12T08:15:00.448Z,49.27
2014-08-12T08:16:05.138Z,49.37
2014-08-12T08:17:09.827Z,49.62
2014-08-12T08:18:14.517Z,48.55
2014-08-12T08:19:19.207Z,48.55
2014-08-12T08:20:23.896Z,49.99
2014-08-12T08:21:28.570Z,48.68
2014-08-12T08:22:33.556Z,48.88
2014-08-12T08:23:38.246Z,48.35
2014-08-12T08:24:43.232Z,48.23
2014-08-12T08:25:47.922Z,48.83
2014-08-12T08:26:52.627Z,49.05
2014-08-12T08:27:57.316Z,49.01
2014-08-12T08:29:02.006Z,48.7
2014-08-12T08:30:06.695Z,49.33
2014-08-12T08:31:11.682Z,50.13
2014-08-12T08:32:16.356Z,47.76
2014-08-12T08:33:21.046Z,48.02
2014-08-12T08:34:25.735Z,47.19
2014-08-12T08:35:30.425Z,47.7
2014-08-12T08:36:35.412Z,47.72
2014-08-12T08:37:40.101Z,48.44
2014-08-12T08:38:44.791Z,48.05
2014-08-12T08:39:49.777Z,47.58
2014-08-12T08:40:54.466Z,47.53
2014-08-12T08:41:59.140Z,47.37
2014-08-12T08:43:04.127Z,47.89
2014-08-12T08:44:08.816Z,47.64
2014-08-12T08:45:13.506Z,48.31
2014-08-12T08:46:18.195Z,47.12
2014-08-12T08:47:23.182Z,45.89
2014-08-12T08:48:27.871Z,45.48
2014-08-12T08:49:32.561Z,45.5
2014-08-12T08:50:37.251Z,46.29
2014-08-12T08:51:41.941Z,46.72
2014-08-12T08:52:46.630Z,47.75
2014-08-12T08:53:51.304Z,47.07
2014-08-12T08:54:55.993Z,47.27
2014-08-12T08:56:00.683Z,47.59
2014-08-12T08:57:05.372Z,46.79
2014-08-12T08:58:10.062Z,46.19
2014-08-12T08:59:14.736Z,46.25
2014-08-12T09:00:19.722Z,45.88
2014-08-12T09:01:24.427Z,46.2
2014-08-12T09:02:29.102Z,47.51
2014-08-12T09:03:34.089Z,46.75
2014-08-12T09:04:38.778Z,46.77
2014-08-12T09:05:43.468Z,46.31
2014-08-12T09:06:47.470Z,47.5
2014-08-12T09:07:52.143Z,47.39
2014-08-12T09:08:57.145Z,47.95
2014-08-12T09:10:01.819Z,48.22
2014-08-12T09:11:06.806Z,47.91
2014-08-12T09:12:11.495Z,47.74
2014-08-12T09:13:16.185Z,47.5
2014-08-12T09:14:20.875Z,47.75
2014-08-12T09:15:25.548Z,48.05
2014-08-12T09:16:30.535Z,47.7
2014-08-12T09:17:35.224Z,47.63
2014-08-12T09:18:39.913Z,47.54
2014-08-12T09:19:44.901Z,47.02
2014-08-12T09:20:49.605Z,46.59
2014-08-12T09:21:54.294Z,47.24
2014-08-12T09:22:58.985Z,47.09
2014-08-12T09:24:03.674Z,46.95
2014-08-12T09:25:08.348Z,46.33
2014-08-12T09:26:13.053Z,46.21
2014-08-12T09:27:18.040Z,47.16
2014-08-12T09:28:23.027Z,45.65
2014-08-12T09:29:27.716Z,44.67
2014-08-12T09:30:32.406Z,45.28
2014-08-12T09:31:36.408Z,44.85
2014-08-12T09:32:41.097Z,45.72
2014-08-12T09:33:45.787Z,44.72
2014-08-12T09:34:50.774Z,45.25
2014-08-12T09:35:55.447Z,46.18
2014-08-12T09:37:00.137Z,45.55
2014-08-12T09:38:04.826Z,46.14
2014-08-12T09:39:09.516Z,46.06
2014-08-12T09:40:14.205Z,46.09
2014-08-12T09:41:18.192Z,46.24
2014-08-12T09:42:22.881Z,46.3
2014-08-12T09:43:27.586Z,46.2
2014-08-12T09:44:32.260Z,47.22
2014-08-12T09:45:36.950Z,45.49
2014-08-12T09:46:41.640Z,45.4
2014-08-12T09:47:46.329Z,44.63
2014-08-12T09:48:51.003Z,45.51
2014-08-12T09:49:55.989Z,45.27
2014-08-12T09:51:00.680Z,45.96
2014-08-12T09:52:05.369Z,46.26
2014-08-12T09:53:10.355Z,45.98
2014-08-12T09:54:15.045Z,46.39
2014-08-12T09:55:19.734Z,46.35
2014-08-12T09:56:24.408Z,46.28
2014-08-12T09:57:29.098Z,46.55
2014-08-12T09:58:34.084Z,46.24
2014-08-12T09:59:38.758Z,46.21
2014-08-12T10:00:43.745Z,45.78
2014-08-12T10:01:48.434Z,46.24
2014-08-12T10:02:53.124Z,45.72
2014-08-12T10:03:58.111Z,46.63
2014-08-12T10:05:02.799Z,46.32
2014-08-12T10:06:07.474Z,46.54
2014-08-12T10:07:12.475Z,47.2
2014-08-12T10:08:17.166Z,46.83
2014-08-12T10:09:21.840Z,47.14
2014-08-12T10:10:26.529Z,47.16
2014-08-12T10:11:31.219Z,47.71
2014-08-12T10:12:36.205Z,47.39
2014-08-12T10:13:40.894Z,47.62
2014-08-12T10:14:45.881Z,46.93
2014-08-12T10:15:50.570Z,46.97
2014-08-12T10:16:55.541Z,46.92
2014-08-12T10:18:00.232Z,47.59
2014-08-12T10:19:04.920Z,46.35
2014-08-12T10:20:09.610Z,46.51
2014-08-12T10:21:14.300Z,46.79
2014-08-12T10:22:18.990Z,47.8
2014-08-12T10:23:23.663Z,45.97
2014-08-12T10:24:28.353Z,45.29
2014-08-12T10:25:33.339Z,45.63
2014-08-12T10:26:38.029Z,45.39
2014-08-12T10:27:42.718Z,46.89
2014-08-12T10:28:47.392Z,44.86
2014-08-12T10:29:52.379Z,43.8
2014-08-12T10:30:57.069Z,43.27
2014-08-12T10:32:01.758Z,43.52
2014-08-12T10:33:06.432Z,45.32
2014-08-12T10:34:11.121Z,44.62
2014-08-12T10:35:15.810Z,43.65
2014-08-12T10:36:20.501Z,44.33
2014-08-12T10:37:25.174Z,43.47
2014-08-12T10:38:29.864Z,44.99
2014-08-12T10:39:34.554Z,45.77
2014-08-12T10:40:39.243Z,43.68
2014-08-12T10:41:43.933Z,43.02
2014-08-12T10:42:48.622Z,42.33
2014-08-12T10:43:53.296Z,42.86
2014-08-12T10:44:57.986Z,41.94
2014-08-12T10:46:02.675Z,41.74
2014-08-12T10:47:07.365Z,41.25
2014-08-12T10:48:12.055Z,41.45
2014-08-12T10:49:16.744Z,41.64
2014-08-12T10:50:21.434Z,41.69
2014-08-12T10:51:26.124Z,41.2
2014-08-12T10:52:30.798Z,42.72
2014-08-12T10:53:35.784Z,42.66
2014-08-12T10:54:40.473Z,42.53
2014-08-12T10:55:45.163Z,43.04
2014-08-12T10:56:49.852Z,42.75
2014-08-12T10:57:54.526Z,42.54
2014-08-12T10:58:59.216Z,43.55
2014-08-12T11:00:03.905Z,44.05
2014-08-12T11:01:08.595Z,44.12
2014-08-12T11:02:13.598Z,43.28
2014-08-12T11:03:18.287Z,43.7
2014-08-12T11:04:23.273Z,44.95
2014-08-12T11:05:27.979Z,44.51
2014-08-12T11:06:32.667Z,44.12
2014-08-12T11:07:37.358Z,44.52
2014-08-12T11:08:42.046Z,44.47
2014-08-12T11:09:47.034Z,44.11
2014-08-12T11:10:51.708Z,44.36
2014-08-12T11:11:56.397Z,45.21
2014-08-12T11:13:01.087Z,45.12
2014-08-12T11:14:05.776Z,45.27
2014-08-12T11:15:10.466Z,45.75
2014-08-12T11:16:15.155Z,46.39
2014-08-12T11:17:20.142Z,44.85
2014-08-12T11:18:24.832Z,45.7
2014-08-12T11:19:28.834Z,44.29
2014-08-12T11:20:33.522Z,44.9
2014-08-12T11:21:38.213Z,44.65
2014-08-12T11:22:42.901Z,43.69
2014-08-12T11:23:47.592Z,44.3
2014-08-12T11:24:52.281Z,42.5
2014-08-12T11:25:56.971Z,42.64
2014-08-12T11:27:01.660Z,43.78
2014-08-12T11:28:06.350Z,43.01
2014-08-12T11:29:11.039Z,42.54
2014-08-12T11:30:15.729Z,41.93
2014-08-12T11:31:20.418Z,41.01
2014-08-12T11:32:25.108Z,41.32
2014-08-12T11:33:29.798Z,41.47
2014-08-12T11:34:34.488Z,41.39
2014-08-12T11:35:39.473Z,41.36
2014-08-12T11:36:44.164Z,40.3
2014-08-12T11:37:48.852Z,40.03
2014-08-12T11:38:53.543Z,41.38
2014-08-12T11:39:58.231Z,42.08
2014-08-12T11:41:03.219Z,40.74
2014-08-12T11:42:07.908Z,40.25
2014-08-12T11:43:12.895Z,41.54
2014-08-12T11:44:17.584Z,39.92
2014-08-12T11:45:22.571Z,40.76
2014-08-12T11:46:27.260Z,39.98
2014-08-12T11:47:31.949Z,39.99
2014-08-12T11:48:36.639Z,39.85
2014-08-12T11:49:41.328Z,40.14
2014-08-12T11:50:46.018Z,41.09
2014-08-12T11:51:50.708Z,39.18
2014-08-12T11:52:55.397Z,39.77
2014-08-12T11:54:00.086Z,40.21
2014-08-12T11:55:04.777Z,41.27
2014-08-12T11:56:09.763Z,39.74
2014-08-12T11:57:14.453Z,40.14
2014-08-12T11:58:19.142Z,40.26
2014-08-12T11:59:23.832Z,40.12
2014-08-12T12:00:28.521Z,40.87
2014-08-12T12:01:33.211Z,39.92
2014-08-12T12:02:38.198Z,40.3
2014-08-12T12:03:42.887Z,40.54
2014-08-12T12:04:47.577Z,39.49
2014-08-12T12:05:52.266Z,39.46
2014-08-12T12:06:56.956Z,40.16
2014-08-12T12:08:01.655Z,41.03
2014-08-12T12:09:06.724Z,40
2014-08-12T12:10:11.496Z,39.83
2014-08-12T12:11:16.268Z,39.99
2014-08-12T12:12:21.336Z,40.19
2014-08-12T12:13:26.381Z,40.72
2014-08-12T12:14:31.099Z,40.59
2014-08-12T12:15:35.819Z,41.01
2014-08-12T12:16:40.835Z,39.76
2014-08-12T12:17:45.850Z,40.04
2014-08-12T12:18:50.553Z,39.36
2014-08-12T12:19:55.254Z,39.73
2014-08-12T12:20:59.954Z,39.98
2014-08-12T12:22:04.654Z,41.34
2014-08-12T12:23:09.384Z,39.76
2014-08-12T12:24:14.078Z,40.41
2014-08-12T12:25:18.770Z,40.02
2014-08-12T12:26:23.464Z,39.85
2014-08-12T12:27:28.157Z,39.22
2014-08-12T12:28:32.864Z,38.77
2014-08-12T12:29:37.556Z,38.99
2014-08-12T12:30:42.544Z,39.81
2014-08-12T12:31:47.236Z,39.54
2014-08-12T12:32:51.927Z,39.85
2014-08-12T12:33:56.617Z,40.13
2014-08-12T12:35:01.307Z,40.24
2014-08-12T12:36:05.997Z,41.18
2014-08-12T12:37:10.686Z,38.15
2014-08-12T12:38:15.377Z,38.29
2014-08-12T12:39:20.066Z,38.84
2014-08-12T12:40:25.053Z,38.4
2014-08-12T12:41:29.742Z,38.27
2014-08-12T12:42:34.432Z,38.91
2014-08-12T12:43:39.418Z,37.96
2014-08-12T12:44:44.405Z,38.44
2014-08-12T12:45:49.094Z,37.87
2014-08-12T12:46:54.081Z,38.9
2014-08-12T12:47:58.770Z,37.37
2014-08-12T12:49:03.460Z,38.6
2014-08-12T12:50:08.150Z,37.9
2014-08-12T12:51:12.838Z,37.74
2014-08-12T12:52:17.529Z,38.3
2014-08-12T12:53:22.514Z,39.17
2014-08-12T12:54:27.189Z,37.8
2014-08-12T12:55:31.879Z,37
2014-08-12T12:56:36.568Z,38.4
2014-08-12T12:57:41.258Z,38.66
2014-08-12T12:58:46.229Z,37.98
2014-08-12T12:59:50.918Z,38.58
2014-08-12T13:00:55.608Z,37.13
2014-08-12T13:01:59.610Z,37.48
2014-08-12T13:03:04.300Z,38.14
2014-08-12T13:04:08.988Z,37.45
2014-08-12T13:05:13.679Z,37.87
2014-08-12T13:06:18.665Z,37.75
2014-08-12T13:07:23.354Z,37.4
2014-08-12T13:08:28.044Z,38.02
2014-08-12T13:09:32.734Z,37.93
2014-08-12T13:10:37.423Z,37.98
2014-08-12T13:11:42.113Z,38.74
2014-08-12T13:12:47.100Z,38.85
2014-08-12T13:13:51.789Z,38.11
2014-08-12T13:14:56.463Z,39.29
2014-08-12T13:16:01.449Z,39.35
2014-08-12T13:17:05.452Z,39.63
2014-08-12T13:18:10.438Z,39.22
2014-08-12T13:19:15.127Z,40.62
2014-08-12T13:20:19.817Z,39.27
2014-08-12T13:21:24.507Z,39.14
2014-08-12T13:22:29.196Z,39.63
2014-08-12T13:23:33.870Z,38.93
2014-08-12T13:24:38.856Z,39.95
2014-08-12T13:25:43.546Z,38.58
2014-08-12T13:26:48.235Z,41.01
2014-08-12T13:27:53.222Z,40.13
2014-08-12T13:28:57.911Z,39
2014-08-12T13:30:02.585Z,38.74
2014-08-12T13:31:07.290Z,39.23
2014-08-12T13:32:11.981Z,38.47
2014-08-12T13:33:16.654Z,38.58
2014-08-12T13:34:21.344Z,39.5
2014-08-12T13:35:26.331Z,38.5
2014-08-12T13:36:31.317Z,39.14
2014-08-12T13:37:36.006Z,38.18
2014-08-12T13:38:40.696Z,37.9
2014-08-12T13:39:45.385Z,38.6
2014-08-12T13:40:50.075Z,38.7
2014-08-12T13:41:54.764Z,39.25
2014-08-12T13:42:59.751Z,38.49
2014-08-12T13:44:04.425Z,38.18
2014-08-12T13:45:09.114Z,37.44
2014-08-12T13:46:13.804Z,37.22
2014-08-12T13:47:18.790Z,38
2014-08-12T13:48:23.480Z,38.27
2014-08-12T13:49:28.170Z,38.35
2014-08-12T13:50:33.156Z,37.53
2014-08-12T13:51:37.846Z,38.48
2014-08-12T13:52:42.535Z,38.69
2014-08-12T13:53:47.225Z,38.9
2014-08-12T13:54:52.211Z,40.24
2014-08-12T13:55:56.901Z,38.91
2014-08-12T13:57:01.590Z,38.2
2014-08-12T13:58:06.264Z,38.65
2014-08-12T13:59:10.954Z,38.24
2014-08-12T14:00:15.940Z,38.81
2014-08-12T14:01:20.631Z,38.4